createdAt,value
2017-12-23T00:01:54.144Z,3.00
2017-12-23T00:04:25.411Z,3.28
2017-12-23T00:06:58.797Z,2.87
2017-12-23T00:09:29.312Z,2.50
2017-12-23T00:12:02.830Z,2.58
2017-12-23T00:14:40.601Z,2.50
2017-12-23T00:17:11.161Z,2.50
2017-12-23T00:19:41.883Z,2.30
2017-12-23T00:22:13.747Z,2.45
2017-12-23T00:24:44.427Z,1.93
2017-12-23T00:27:14.956Z,2.65
2017-12-23T00:29:45.980Z,2.40
2017-12-23T00:32:16.730Z,2.78
2017-12-23T00:34:47.393Z,2.67
2017-12-23T00:37:18.716Z,2.90
2017-12-23T00:42:12.930Z,2.93
2017-12-23T00:44:43.937Z,2.55
2017-12-23T00:47:16.567Z,2.53
2017-12-23T00:49:47.578Z,2.40
2017-12-23T00:52:17.962Z,2.50
2017-12-23T00:54:49.556Z,2.40
2017-12-23T00:57:19.826Z,2.50
2017-12-23T00:59:50.048Z,2.50
2017-12-23T01:02:20.600Z,2.03
2017-12-23T01:04:51.212Z,2.22
2017-12-23T01:07:23.588Z,2.40
2017-12-23T01:09:54.460Z,2.20
2017-12-23T01:12:25.047Z,2.60
2017-12-23T01:14:56.412Z,2.70
2017-12-23T01:17:27.070Z,2.30
2017-12-23T01:19:57.599Z,3.10
2017-12-23T01:22:30.027Z,2.70
2017-12-23T01:25:01.351Z,2.50
2017-12-23T01:27:31.648Z,3.20
2017-12-23T01:30:03.414Z,3.35
2017-12-23T01:32:33.682Z,2.80
2017-12-23T01:35:04.256Z,3.08
2017-12-23T01:37:35.098Z,3.47
2017-12-23T01:40:06.095Z,3.10
2017-12-23T01:42:37.469Z,2.53
2017-12-23T01:45:08.597Z,4.15
2017-12-23T01:47:39.386Z,4.28
2017-12-23T01:50:10.244Z,3.47
2017-12-23T01:52:42.360Z,2.80
2017-12-23T01:55:12.949Z,2.60
2017-12-23T01:57:43.372Z,2.10
2017-12-23T02:00:14.144Z,2.47
2017-12-23T02:02:45.282Z,2.20
2017-12-23T02:05:16.375Z,2.20
2017-12-23T02:07:47.023Z,2.00
2017-12-23T02:10:17.878Z,2.70
2017-12-23T02:12:48.460Z,2.45
2017-12-23T02:15:18.706Z,2.50
2017-12-23T02:17:49.540Z,3.10
2017-12-23T02:20:20.053Z,2.90
2017-12-23T02:22:50.869Z,3.10
2017-12-23T02:25:21.430Z,4.00
2017-12-23T02:27:52.230Z,3.65
2017-12-23T02:30:23.646Z,3.53
2017-12-23T02:32:55.208Z,3.50
2017-12-23T02:35:26.607Z,2.70
2017-12-23T02:37:57.934Z,2.85
2017-12-23T02:40:28.897Z,4.40
2017-12-23T02:43:00.261Z,3.10
2017-12-23T02:45:31.544Z,3.50
2017-12-23T02:48:02.312Z,3.95
2017-12-23T02:50:33.028Z,3.97
2017-12-23T02:53:03.700Z,4.00
2017-12-23T02:55:34.298Z,3.80
2017-12-23T02:58:05.605Z,3.80
2017-12-23T03:00:36.922Z,3.25
2017-12-23T03:03:07.960Z,3.15
2017-12-23T03:05:38.632Z,2.33
2017-12-23T03:08:09.168Z,2.10
2017-12-23T03:10:40.461Z,2.12
2017-12-23T03:13:11.435Z,2.67
2017-12-23T03:15:42.071Z,2.33
2017-12-23T03:18:12.911Z,2.30
2017-12-23T03:20:44.413Z,2.40
2017-12-23T03:23:15.474Z,2.60
2017-12-23T03:25:47.856Z,2.20
2017-12-23T03:28:18.969Z,1.70
2017-12-23T03:30:49.845Z,1.80
2017-12-23T03:33:20.996Z,1.95
2017-12-23T03:35:51.726Z,2.00
2017-12-23T03:38:23.453Z,1.70
2017-12-23T03:40:54.699Z,1.80
2017-12-23T03:43:25.855Z,1.40
2017-12-23T03:45:56.786Z,1.70
2017-12-23T03:48:27.354Z,1.50
2017-12-23T03:50:58.331Z,1.90
2017-12-23T03:53:29.621Z,2.20
2017-12-23T03:56:00.147Z,2.05
2017-12-23T03:58:31.005Z,2.28
2017-12-23T04:01:02.039Z,1.70
2017-12-23T04:03:32.511Z,1.62
2017-12-23T04:06:03.091Z,1.90
2017-12-23T04:08:34.006Z,2.23
2017-12-23T04:11:04.491Z,2.20
2017-12-23T04:13:35.420Z,1.80
2017-12-23T04:16:06.737Z,1.90
2017-12-23T04:18:37.350Z,1.75
2017-12-23T04:21:07.993Z,2.25
2017-12-23T04:23:38.764Z,3.55
2017-12-23T04:26:10.078Z,2.28
2017-12-23T04:28:41.030Z,2.03
2017-12-23T04:31:12.060Z,1.87
2017-12-23T04:33:42.518Z,1.50
2017-12-23T04:36:13.099Z,1.70
2017-12-23T04:38:43.859Z,1.70
2017-12-23T04:41:14.420Z,1.60
2017-12-23T04:43:44.667Z,2.20
2017-12-23T04:46:15.771Z,2.57
2017-12-23T04:48:46.610Z,3.62
2017-12-23T04:51:17.136Z,2.40
2017-12-23T04:53:48.151Z,2.75
2017-12-23T04:56:18.901Z,2.40
2017-12-23T04:58:49.772Z,2.35
2017-12-23T05:01:20.678Z,2.70
2017-12-23T05:03:51.690Z,2.40
2017-12-23T05:06:22.628Z,2.50
2017-12-23T05:08:53.558Z,2.70
2017-12-23T05:11:24.485Z,3.00
2017-12-23T05:13:55.039Z,2.40
2017-12-23T05:16:25.360Z,2.70
2017-12-23T05:18:55.688Z,2.60
2017-12-23T05:21:27.036Z,2.20
2017-12-23T05:23:59.102Z,2.00
2017-12-23T05:26:29.991Z,1.85
2017-12-23T05:29:01.475Z,1.70
2017-12-23T05:31:32.032Z,1.90
2017-12-23T05:34:02.842Z,1.75
2017-12-23T05:36:33.786Z,2.10
2017-12-23T05:39:04.335Z,2.50
2017-12-23T05:41:34.654Z,4.75
2017-12-23T05:44:05.790Z,2.50
2017-12-23T05:46:36.449Z,2.35
2017-12-23T05:49:07.109Z,2.30
2017-12-23T05:51:37.812Z,2.87
2017-12-23T05:54:08.391Z,4.10
2017-12-23T05:57:27.514Z,3.08
2017-12-23T06:00:02.758Z,3.35
2017-12-23T06:02:33.718Z,3.10
2017-12-23T06:05:04.409Z,3.47
2017-12-23T06:07:34.810Z,3.50
2017-12-23T06:10:05.777Z,3.40
2017-12-23T06:12:37.910Z,3.35
2017-12-23T06:15:08.491Z,3.63
2017-12-23T06:17:39.022Z,3.23
2017-12-23T06:20:09.876Z,3.37
2017-12-23T06:22:40.818Z,2.97
2017-12-23T06:25:12.292Z,3.20
2017-12-23T06:27:44.803Z,3.40
2017-12-23T06:30:15.567Z,3.33
2017-12-23T06:32:46.381Z,2.20
2017-12-23T06:35:17.470Z,2.40
2017-12-23T06:37:47.667Z,2.70
2017-12-23T06:40:18.906Z,3.00
2017-12-23T06:42:49.502Z,3.20
2017-12-23T06:45:19.806Z,3.00
2017-12-23T06:47:50.651Z,3.60
2017-12-23T06:50:21.748Z,3.70
2017-12-23T06:52:52.064Z,3.15
2017-12-23T06:55:23.358Z,2.90
2017-12-23T06:57:54.612Z,2.50
2017-12-23T07:00:26.118Z,2.50
2017-12-23T07:02:56.520Z,2.22
2017-12-23T07:05:27.774Z,2.77
2017-12-23T07:07:58.514Z,2.05
2017-12-23T07:10:28.828Z,2.65
2017-12-23T07:13:00.809Z,2.70
2017-12-23T07:15:31.199Z,3.20
2017-12-23T07:18:02.023Z,2.92
2017-12-23T07:20:32.289Z,3.30
2017-12-23T07:23:02.858Z,3.70
2017-12-23T07:25:33.529Z,3.92
2017-12-23T07:28:05.907Z,3.90
2017-12-23T07:30:36.924Z,4.20
2017-12-23T07:33:07.446Z,4.37
2017-12-23T07:35:38.014Z,3.70
2017-12-23T07:38:08.555Z,3.42
2017-12-23T07:40:38.828Z,4.80
2017-12-23T07:43:09.639Z,4.30
2017-12-23T07:48:20.941Z,4.00
2017-12-23T07:50:51.946Z,3.97
2017-12-23T07:53:22.534Z,4.13
2017-12-23T07:55:53.374Z,4.50
2017-12-23T07:58:23.946Z,4.78
2017-12-23T08:00:54.927Z,4.87
2017-12-23T08:03:25.389Z,4.65
2017-12-23T08:05:55.676Z,4.65
2017-12-23T08:08:26.225Z,4.20
2017-12-23T08:10:56.839Z,5.00
2017-12-23T08:13:27.443Z,4.50
2017-12-23T08:15:58.121Z,4.03
2017-12-23T08:18:28.716Z,4.20
2017-12-23T08:20:59.104Z,4.00
2017-12-23T08:23:30.644Z,4.00
2017-12-23T08:26:02.204Z,4.12
2017-12-23T08:28:32.941Z,4.30
2017-12-23T08:31:03.254Z,5.20
2017-12-23T08:33:33.465Z,6.85
2017-12-23T08:36:04.232Z,5.90
2017-12-23T08:38:34.608Z,6.30
2017-12-23T08:41:05.440Z,6.85
2017-12-23T08:43:37.086Z,6.37
2017-12-23T08:46:07.548Z,8.30
2017-12-23T08:52:14.120Z,7.57
2017-12-23T08:54:44.767Z,7.57
2017-12-23T08:57:38.690Z,7.87
2017-12-23T09:00:13.658Z,7.35
2017-12-23T09:02:59.186Z,7.95
2017-12-23T09:05:34.070Z,6.95
2017-12-23T09:08:05.251Z,6.45
2017-12-23T09:10:37.884Z,6.70
2017-12-23T10:32:10.442Z,6.00
2017-12-23T10:34:42.039Z,4.93
2017-12-23T10:40:49.027Z,4.97
2017-12-23T10:43:22.123Z,4.97
2017-12-23T10:45:53.326Z,4.97
2017-12-23T10:48:24.508Z,4.45
2017-12-23T10:50:56.070Z,4.65
2017-12-23T10:53:28.750Z,5.10
2017-12-23T10:56:07.041Z,4.50
2017-12-23T10:58:44.986Z,4.43
2017-12-23T11:01:16.133Z,3.60
2017-12-23T11:03:47.154Z,4.20
2017-12-23T11:06:19.143Z,6.65
2017-12-23T11:08:51.791Z,4.00
2017-12-23T11:11:24.338Z,5.97
2017-12-23T11:13:57.411Z,4.00
2017-12-23T11:19:57.531Z,4.90
2017-12-23T11:22:28.443Z,3.27
2017-12-23T11:24:59.887Z,6.10
2017-12-23T11:27:30.614Z,6.90
2017-12-23T11:30:15.316Z,5.20
2017-12-23T11:32:54.093Z,6.37
2017-12-23T11:35:35.186Z,6.80
2017-12-23T11:38:06.048Z,6.07
2017-12-23T11:40:38.262Z,5.55
2017-12-23T11:43:10.733Z,7.72
2017-12-23T11:46:01.776Z,8.40
2017-12-23T11:48:52.943Z,8.38
2017-12-23T11:51:24.170Z,6.60
2017-12-23T11:54:03.988Z,5.97
2017-12-23T11:56:36.661Z,6.25
2017-12-23T11:59:07.396Z,5.60
2017-12-23T12:02:03.370Z,5.30
2017-12-23T12:04:35.142Z,5.40
2017-12-23T12:07:07.624Z,4.40
2017-12-23T12:10:29.285Z,3.87
2017-12-23T12:13:02.567Z,4.20
2017-12-23T12:15:33.685Z,4.90
2017-12-23T12:18:07.469Z,4.75
2017-12-23T12:21:04.055Z,4.40
2017-12-23T12:23:34.463Z,4.83
2017-12-23T12:26:05.991Z,4.75
2017-12-23T12:28:37.323Z,5.20
2017-12-23T12:31:18.070Z,4.15
2017-12-23T12:33:49.264Z,7.72
2017-12-23T12:36:26.669Z,8.68
2017-12-23T12:38:58.692Z,4.60
2017-12-23T12:41:32.090Z,3.00
2017-12-23T12:44:03.326Z,1.60
2017-12-23T12:46:34.530Z,1.50
2017-12-23T12:49:05.938Z,1.90
2017-12-23T12:51:36.251Z,1.90
2017-12-23T12:54:07.601Z,1.40
2017-12-23T12:56:39.858Z,1.60
2017-12-23T12:59:22.730Z,1.30
2017-12-23T13:01:53.956Z,1.50
2017-12-23T13:04:27.597Z,1.40
2017-12-23T13:07:01.675Z,3.65
2017-12-23T13:13:02.110Z,1.55
2017-12-23T13:15:36.314Z,1.40
2017-12-23T13:18:07.850Z,1.60
2017-12-23T13:20:51.835Z,1.40
2017-12-23T13:23:23.350Z,1.10
2017-12-23T13:25:56.743Z,1.20
2017-12-23T13:28:28.479Z,1.10
2017-12-23T13:31:00.815Z,1.00
2017-12-23T13:33:31.281Z,1.30
2017-12-23T13:36:07.565Z,1.40
2017-12-23T13:38:39.450Z,1.35
2017-12-23T13:41:12.455Z,1.20
2017-12-23T13:46:38.011Z,1.60
2017-12-23T13:49:09.574Z,1.40
2017-12-23T13:51:40.304Z,1.30
2017-12-23T13:54:13.260Z,1.50
2017-12-23T13:56:47.358Z,0.93
2017-12-23T13:59:18.602Z,1.20
2017-12-23T14:01:50.111Z,1.00
2017-12-23T14:04:24.059Z,1.10
2017-12-23T14:06:55.548Z,1.00
2017-12-23T14:09:29.439Z,0.70
2017-12-23T14:12:06.891Z,1.10
2017-12-23T14:14:39.236Z,1.70
2017-12-23T14:17:16.168Z,1.60
2017-12-23T14:19:47.551Z,1.67
2017-12-23T14:22:34.231Z,1.60
2017-12-23T14:25:07.354Z,1.40
2017-12-23T14:27:38.144Z,1.33
2017-12-23T14:37:00.744Z,3.50
2017-12-23T14:39:39.940Z,3.60
2017-12-23T14:42:12.448Z,3.80
2017-12-23T14:44:44.658Z,3.70
2017-12-23T14:47:33.361Z,4.60
2017-12-23T14:50:11.748Z,4.50
2017-12-23T14:52:42.235Z,3.90
2017-12-23T14:55:13.679Z,3.10
2017-12-23T14:57:45.148Z,2.60
2017-12-23T15:01:00.211Z,2.85
2017-12-23T15:03:31.350Z,2.65
2017-12-23T15:06:05.480Z,2.45
2017-12-23T15:12:24.607Z,3.10
2017-12-23T15:15:22.957Z,2.90
2017-12-23T15:17:53.926Z,2.87
2017-12-23T15:20:26.594Z,3.10
2017-12-23T15:23:01.972Z,3.00
2017-12-23T15:25:33.271Z,4.20
2017-12-23T15:28:36.391Z,3.80
2017-12-23T15:31:07.734Z,3.40
2017-12-23T15:33:42.444Z,3.40
2017-12-23T15:36:15.395Z,3.67
2017-12-23T15:39:01.044Z,3.78
2017-12-23T15:41:33.693Z,4.05
2017-12-23T15:44:07.632Z,3.17
2017-12-23T15:46:43.563Z,3.25
2017-12-23T15:49:27.534Z,3.50
2017-12-23T15:51:59.500Z,3.92
2017-12-23T15:54:33.284Z,4.90
2017-12-23T15:57:06.067Z,4.40
2017-12-23T15:59:36.594Z,5.05
2017-12-23T16:02:12.418Z,4.95
2017-12-23T16:04:43.370Z,4.18
2017-12-23T16:09:26.897Z,4.90
2017-12-23T16:11:58.280Z,4.47
2017-12-23T16:14:31.007Z,4.63
2017-12-23T16:17:01.866Z,4.10
2017-12-23T16:19:32.274Z,5.40
2017-12-23T16:22:03.229Z,4.40
2017-12-23T16:24:34.591Z,4.83
2017-12-23T16:27:11.964Z,7.15
2017-12-23T16:32:48.452Z,6.82
2017-12-23T16:35:20.572Z,8.75
2017-12-23T16:37:51.078Z,19.58
2017-12-23T16:43:32.309Z,13.20
2017-12-23T16:46:04.587Z,11.60
2017-12-23T16:48:39.569Z,8.40
2017-12-23T16:51:14.942Z,11.50
2017-12-23T16:53:46.826Z,12.68
2017-12-23T16:57:08.398Z,11.80
2017-12-23T16:59:39.185Z,11.50
2017-12-23T17:02:09.661Z,9.82
2017-12-23T17:04:40.576Z,10.52
2017-12-23T17:07:11.576Z,9.95
2017-12-23T17:09:41.947Z,13.20
2017-12-23T17:12:13.514Z,19.48
2017-12-23T17:14:44.767Z,20.85
2017-12-23T17:17:16.537Z,16.02
2017-12-23T17:19:48.587Z,17.03
2017-12-23T17:22:21.415Z,16.97
2017-12-23T17:24:52.437Z,17.02
2017-12-23T17:27:23.436Z,16.65
2017-12-23T17:30:20.246Z,12.35
2017-12-23T17:32:51.269Z,10.70
2017-12-23T17:35:23.692Z,11.05
2017-12-23T17:37:54.720Z,9.20
2017-12-23T17:40:25.719Z,7.60
2017-12-23T17:42:57.472Z,6.50
2017-12-23T17:45:29.736Z,6.82
2017-12-23T17:48:02.245Z,7.57
2017-12-23T17:50:35.415Z,7.60
2017-12-23T17:53:17.780Z,14.70
2017-12-23T17:55:48.976Z,14.30
2017-12-23T17:58:20.490Z,16.50
2017-12-23T18:00:52.599Z,19.27
2017-12-23T18:03:23.477Z,16.25
2017-12-23T18:05:54.368Z,11.80
2017-12-23T18:08:27.629Z,11.77
2017-12-23T18:10:59.568Z,11.05
2017-12-23T18:13:30.975Z,11.80
2017-12-23T18:16:02.336Z,9.85
2017-12-23T18:18:33.791Z,10.13
2017-12-23T18:21:04.063Z,9.02
2017-12-23T18:23:34.583Z,9.60
2017-12-23T18:26:05.950Z,28.90
2017-12-23T18:28:36.377Z,19.30
2017-12-23T18:31:07.943Z,15.07
2017-12-23T18:37:09.961Z,11.30
2017-12-23T18:39:40.832Z,10.38
2017-12-23T18:42:12.348Z,10.02
2017-12-23T18:44:43.123Z,12.88
2017-12-23T18:47:13.464Z,11.30
2017-12-23T18:49:46.956Z,9.25
2017-12-23T18:52:17.777Z,9.10
2017-12-23T18:54:48.884Z,10.25
2017-12-23T18:57:19.830Z,10.70
2017-12-23T18:59:50.815Z,10.32
2017-12-23T19:02:21.578Z,10.00
2017-12-23T19:04:52.317Z,9.13
2017-12-23T19:07:23.078Z,9.70
2017-12-23T19:09:55.122Z,9.20
2017-12-23T19:12:26.812Z,8.30
2017-12-23T19:14:57.368Z,8.18
2017-12-23T19:17:28.422Z,8.40
2017-12-23T19:19:59.238Z,7.05
2017-12-23T19:22:31.484Z,6.70
2017-12-23T19:25:03.231Z,8.27
2017-12-23T19:27:34.018Z,12.18
2017-12-23T19:30:04.368Z,9.43
2017-12-23T19:32:35.851Z,9.80
2017-12-23T19:35:06.983Z,9.63
2017-12-23T19:37:37.547Z,9.80
2017-12-23T19:40:12.436Z,8.02
2017-12-23T19:42:43.238Z,12.30
2017-12-23T19:45:15.463Z,11.75
2017-12-23T19:47:47.041Z,10.23
2017-12-23T19:50:17.670Z,10.10
2017-12-23T19:52:49.172Z,10.07
2017-12-23T19:55:19.672Z,9.65
2017-12-23T19:57:50.332Z,9.30
2017-12-23T20:00:21.754Z,8.70
2017-12-23T20:02:53.434Z,12.35
2017-12-23T20:05:26.490Z,18.98
2017-12-23T20:07:57.784Z,26.98
2017-12-23T20:10:29.158Z,16.10
2017-12-23T20:12:59.438Z,13.98
2017-12-23T20:15:30.872Z,11.70
2017-12-23T20:18:06.373Z,12.52
2017-12-23T20:20:38.858Z,9.00
2017-12-23T20:23:09.238Z,7.53
2017-12-23T20:25:40.576Z,8.85
2017-12-23T20:28:11.484Z,9.27
2017-12-23T20:30:42.928Z,9.20
2017-12-23T20:33:14.242Z,7.40
2017-12-23T20:35:45.097Z,6.70
2017-12-23T20:38:17.299Z,6.43
2017-12-23T20:40:49.551Z,5.90
2017-12-23T20:43:23.552Z,5.18
2017-12-23T20:45:54.750Z,5.12
2017-12-23T20:48:25.880Z,5.07
2017-12-23T20:50:56.193Z,4.93
2017-12-23T20:53:26.838Z,5.85
2017-12-23T20:55:57.264Z,8.70
2017-12-23T20:58:27.661Z,7.50
2017-12-23T21:00:58.493Z,7.73
2017-12-23T21:03:29.414Z,8.25
2017-12-23T21:05:59.712Z,8.40
2017-12-23T21:08:31.317Z,8.90
2017-12-23T21:11:09.126Z,8.45
2017-12-23T21:13:55.255Z,8.20
2017-12-23T21:16:27.354Z,8.77
2017-12-23T21:18:58.635Z,7.90
2017-12-23T21:21:29.850Z,8.20
2017-12-23T21:24:00.128Z,8.82
2017-12-23T21:26:30.675Z,8.52
2017-12-23T21:29:01.804Z,9.60
2017-12-23T21:31:32.488Z,10.13
2017-12-23T21:34:03.156Z,10.33
2017-12-23T21:36:34.263Z,9.00
2017-12-23T21:39:05.208Z,9.20
2017-12-23T21:41:52.056Z,9.77
2017-12-23T21:44:22.546Z,8.15
2017-12-23T21:46:52.783Z,8.90
2017-12-23T21:49:25.666Z,9.00
2017-12-23T21:51:56.308Z,8.90
2017-12-23T21:54:26.889Z,10.20
2017-12-23T21:56:57.342Z,8.65
2017-12-23T21:59:27.607Z,8.43
2017-12-23T22:01:58.935Z,8.35
2017-12-23T22:04:34.577Z,8.40
2017-12-23T22:07:07.258Z,8.35
2017-12-23T22:09:38.008Z,8.48
2017-12-23T22:12:08.556Z,8.40
2017-12-23T22:14:39.184Z,7.78
2017-12-23T22:17:09.754Z,7.60
2017-12-23T22:19:40.307Z,6.97
2017-12-23T22:22:10.856Z,6.40
2017-12-23T22:24:42.013Z,6.00
2017-12-23T22:27:12.285Z,5.25
2017-12-23T22:29:43.396Z,5.40
2017-12-23T22:32:13.707Z,4.80
2017-12-23T22:34:45.097Z,5.12
2017-12-23T22:37:15.936Z,5.28
2017-12-23T22:39:46.796Z,5.30
2017-12-23T22:42:26.541Z,5.43
2017-12-23T22:44:57.396Z,5.60
2017-12-23T22:47:28.861Z,6.37
2017-12-23T22:49:59.397Z,5.53
2017-12-23T22:52:30.031Z,5.10
2017-12-23T22:55:01.706Z,6.25
2017-12-23T22:57:33.462Z,6.05
2017-12-23T23:00:05.654Z,7.45
2017-12-23T23:02:36.680Z,6.62
2017-12-23T23:05:07.514Z,7.07
2017-12-23T23:07:38.491Z,7.20
2017-12-23T23:10:09.623Z,7.00
2017-12-23T23:12:39.851Z,8.50
2017-12-23T23:15:10.804Z,8.07
2017-12-23T23:17:42.152Z,7.80
2017-12-23T23:20:12.942Z,7.90
2017-12-23T23:22:43.893Z,8.10
2017-12-23T23:25:14.282Z,7.93
2017-12-23T23:27:44.750Z,6.70
2017-12-23T23:30:15.692Z,6.90
2017-12-23T23:32:46.038Z,6.82
2017-12-23T23:35:16.594Z,9.25
2017-12-23T23:37:47.316Z,8.25
2017-12-23T23:40:19.217Z,8.35
2017-12-23T23:42:50.756Z,11.90
2017-12-23T23:45:21.525Z,11.20
2017-12-23T23:47:51.990Z,11.35
2017-12-23T23:50:24.327Z,10.02
2017-12-23T23:52:54.950Z,9.63
2017-12-23T23:55:25.547Z,10.60
2017-12-23T23:57:57.965Z,11.80
